sensor_id;sensor_type;location;lat;lon;timestamp;pressure;altitude;pressure_sealevel;temperature;humidity
21011;BME280;10663;42.714;23.274;2023-01-29T00:00:49;94902.00;;;-0.45;98.68
21011;BME280;10663;42.714;23.274;2023-01-29T00:02:20;94923.03;;;-0.46;98.78
21011;BME280;10663;42.714;23.274;2023-01-29T00:03:51;94906.84;;;-0.35;98.65
21011;BME280;10663;42.714;23.274;2023-01-29T00:05:22;94900.78;;;-0.49;98.41
21011;BME280;10663;42.714;23.274;2023-01-29T00:06:53;94911.06;;;-0.34;99.05
21011;BME280;10663;42.714;23.274;2023-01-29T00:08:24;94912.66;;;-0.33;98.53
21011;BME280;10663;42.714;23.274;2023-01-29T00:09:55;94922.69;;;-0.36;98.78
21011;BME280;10663;42.714;23.274;2023-01-29T00:11:26;94909.25;;;-0.40;99.24
21011;BME280;10663;42.714;23.274;2023-01-29T00:12:58;94913.63;;;-0.41;100.00
21011;BME280;10663;42.714;23.274;2023-01-29T00:14:28;94911.19;;;-0.49;100.00
21011;BME280;10663;42.714;23.274;2023-01-29T00:16:00;94915.56;;;-0.56;100.00
21011;BME280;10663;42.714;23.274;2023-01-29T00:17:31;94917.66;;;-0.38;100.00
21011;BME280;10663;42.714;23.274;2023-01-29T00:19:02;94918.69;;;-0.32;100.00
21011;BME280;10663;42.714;23.274;2023-01-29T00:20:33;94926.28;;;-0.38;99.79
21011;BME280;10663;42.714;23.274;2023-01-29T00:22:05;94919.81;;;-0.42;100.00
21011;BME280;10663;42.714;23.274;2023-01-29T00:23:36;94922.69;;;-0.30;100.00
21011;BME280;10663;42.714;23.274;2023-01-29T00:25:07;94915.88;;;-0.38;100.00
21011;BME280;10663;42.714;23.274;2023-01-29T00:26:38;94918.84;;;-0.41;100.00
21011;BME280;10663;42.714;23.274;2023-01-29T00:28:10;94924.84;;;-0.40;100.00
21011;BME280;10663;42.714;23.274;2023-01-29T00:29:41;94917.81;;;-0.46;100.00
21011;BME280;10663;42.714;23.274;2023-01-29T00:31:19;94924.66;;;-0.39;100.00
21011;BME280;10663;42.714;23.274;2023-01-29T00:32:50;94927.88;;;-0.36;100.00
21011;BME280;10663;42.714;23.274;2023-01-29T00:34:21;94928.81;;;-0.44;100.00
21011;BME280;10663;42.714;23.274;2023-01-29T00:35:54;94920.59;;;-0.48;99.92
21011;BME280;10663;42.714;23.274;2023-01-29T00:37:24;94933.44;;;-0.40;99.87
21011;BME280;10663;42.714;23.274;2023-01-29T00:38:57;94920.84;;;-0.36;99.62
21011;BME280;10663;42.714;23.274;2023-01-29T00:40:28;94920.41;;;-0.46;99.27
21011;BME280;10663;42.714;23.274;2023-01-29T00:42:19;94937.47;;;-0.37;99.43
21011;BME280;10663;42.714;23.274;2023-01-29T00:44:08;94918.47;;;-0.38;99.96
21011;BME280;10663;42.714;23.274;2023-01-29T00:45:58;94919.81;;;-0.42;99.90
21011;BME280;10663;42.714;23.274;2023-01-29T00:47:28;94939.44;;;-0.46;99.94
21011;BME280;10663;42.714;23.274;2023-01-29T00:49:03;94922.41;;;-0.48;99.91
21011;BME280;10663;42.714;23.274;2023-01-29T00:50:35;94919.19;;;-0.50;99.92
21011;BME280;10663;42.714;23.274;2023-01-29T00:52:05;94940.63;;;-0.42;100.00
21011;BME280;10663;42.714;23.274;2023-01-29T00:53:55;94927.41;;;-0.47;100.00
21011;BME280;10663;42.714;23.274;2023-01-29T00:55:27;94935.81;;;-0.45;100.00
21011;BME280;10663;42.714;23.274;2023-01-29T00:56:58;94910.56;;;-0.51;100.00
21011;BME280;10663;42.714;23.274;2023-01-29T00:58:29;94925.81;;;-0.48;100.00
21011;BME280;10663;42.714;23.274;2023-01-29T01:00:07;94946.63;;;-0.48;100.00
21011;BME280;10663;42.714;23.274;2023-01-29T01:01:39;94938.75;;;-0.54;100.00
21011;BME280;10663;42.714;23.274;2023-01-29T01:03:29;94921.59;;;-0.49;100.00
21011;BME280;10663;42.714;23.274;2023-01-29T01:05:00;94928.00;;;-0.45;100.00
21011;BME280;10663;42.714;23.274;2023-01-29T01:06:36;94928.44;;;-0.41;99.60
21011;BME280;10663;42.714;23.274;2023-01-29T01:08:09;94934.88;;;-0.37;100.00
21011;BME280;10663;42.714;23.274;2023-01-29T01:09:58;94920.97;;;-0.51;99.90
21011;BME280;10663;42.714;23.274;2023-01-29T01:12:01;94925.63;;;-0.46;99.68
21011;BME280;10663;42.714;23.274;2023-01-29T01:13:33;94925.63;;;-0.46;99.81
21011;BME280;10663;42.714;23.274;2023-01-29T01:15:04;94922.00;;;-0.45;99.61
21011;BME280;10663;42.714;23.274;2023-01-29T01:16:35;94932.81;;;-0.48;99.75
21011;BME280;10663;42.714;23.274;2023-01-29T01:18:06;94918.97;;;-0.55;99.95
21011;BME280;10663;42.714;23.274;2023-01-29T01:19:37;94936.75;;;-0.52;99.88
21011;BME280;10663;42.714;23.274;2023-01-29T01:21:08;94912.34;;;-0.58;99.65
21011;BME280;10663;42.714;23.274;2023-01-29T01:22:39;94935.91;;;-0.59;99.65
21011;BME280;10663;42.714;23.274;2023-01-29T01:24:11;94956.34;;;-0.56;99.64
21011;BME280;10663;42.714;23.274;2023-01-29T01:25:42;94927.13;;;-0.58;99.36
21011;BME280;10663;42.714;23.274;2023-01-29T01:27:12;94916.91;;;-0.60;99.37
21011;BME280;10663;42.714;23.274;2023-01-29T01:28:43;94904.56;;;-0.51;99.51
21011;BME280;10663;42.714;23.274;2023-01-29T01:30:15;94933.97;;;-0.51;99.67
21011;BME280;10663;42.714;23.274;2023-01-29T01:31:45;94942.13;;;-0.60;99.89
21011;BME280;10663;42.714;23.274;2023-01-29T01:33:16;94957.34;;;-0.57;99.65
21011;BME280;10663;42.714;23.274;2023-01-29T01:34:51;94925.53;;;-0.59;99.82
21011;BME280;10663;42.714;23.274;2023-01-29T01:36:22;94926.75;;;-0.55;100.00
21011;BME280;10663;42.714;23.274;2023-01-29T01:37:52;94938.53;;;-0.59;99.59
21011;BME280;10663;42.714;23.274;2023-01-29T01:39:24;94925.16;;;-0.56;100.00
21011;BME280;10663;42.714;23.274;2023-01-29T01:40:55;94919.56;;;-0.53;100.00
21011;BME280;10663;42.714;23.274;2023-01-29T01:42:29;94929.38;;;-0.55;100.00
21011;BME280;10663;42.714;23.274;2023-01-29T01:44:02;94924.75;;;-0.53;100.00
21011;BME280;10663;42.714;23.274;2023-01-29T01:45:35;94916.75;;;-0.52;100.00
21011;BME280;10663;42.714;23.274;2023-01-29T01:47:08;94922.56;;;-0.56;100.00
21011;BME280;10663;42.714;23.274;2023-01-29T01:48:39;94922.69;;;-0.64;100.00
21011;BME280;10663;42.714;23.274;2023-01-29T01:50:14;94921.28;;;-0.67;100.00
21011;BME280;10663;42.714;23.274;2023-01-29T01:51:47;94921.09;;;-0.65;100.00
21011;BME280;10663;42.714;23.274;2023-01-29T01:53:27;94942.44;;;-0.70;100.00
21011;BME280;10663;42.714;23.274;2023-01-29T01:54:59;94917.06;;;-0.68;100.00
21011;BME280;10663;42.714;23.274;2023-01-29T01:56:33;94925.47;;;-0.66;100.00
21011;BME280;10663;42.714;23.274;2023-01-29T01:58:19;94926.66;;;-0.68;100.00
21011;BME280;10663;42.714;23.274;2023-01-29T01:59:56;94931.44;;;-0.72;100.00
21011;BME280;10663;42.714;23.274;2023-01-29T02:01:29;94939.63;;;-0.75;100.00
21011;BME280;10663;42.714;23.274;2023-01-29T02:03:01;94940.03;;;-0.71;100.00
21011;BME280;10663;42.714;23.274;2023-01-29T02:04:52;94933.31;;;-0.59;100.00
21011;BME280;10663;42.714;23.274;2023-01-29T02:06:42;94936.69;;;-0.65;100.00
21011;BME280;10663;42.714;23.274;2023-01-29T02:08:42;94931.53;;;-0.59;100.00
21011;BME280;10663;42.714;23.274;2023-01-29T02:10:45;94937.44;;;-0.71;100.00
21011;BME280;10663;42.714;23.274;2023-01-29T02:12:17;94927.28;;;-0.66;100.00
21011;BME280;10663;42.714;23.274;2023-01-29T02:13:49;94934.91;;;-0.65;100.00
21011;BME280;10663;42.714;23.274;2023-01-29T02:15:29;94945.22;;;-0.71;100.00
21011;BME280;10663;42.714;23.274;2023-01-29T02:17:07;94930.88;;;-0.67;100.00
21011;BME280;10663;42.714;23.274;2023-01-29T02:18:38;94929.88;;;-0.66;100.00
21011;BME280;10663;42.714;23.274;2023-01-29T02:20:22;94938.31;;;-0.64;100.00
21011;BME280;10663;42.714;23.274;2023-01-29T02:24:15;94930.09;;;-0.61;100.00
21011;BME280;10663;42.714;23.274;2023-01-29T02:26:12;94932.66;;;-0.68;100.00
21011;BME280;10663;42.714;23.274;2023-01-29T02:30:16;94932.63;;;-0.74;100.00
21011;BME280;10663;42.714;23.274;2023-01-29T02:32:14;94942.22;;;-0.75;100.00
21011;BME280;10663;42.714;23.274;2023-01-29T02:35:49;94934.81;;;-0.71;100.00
21011;BME280;10663;42.714;23.274;2023-01-29T02:37:28;94943.63;;;-0.72;100.00
21011;BME280;10663;42.714;23.274;2023-01-29T02:39:19;94951.00;;;-0.76;100.00
21011;BME280;10663;42.714;23.274;2023-01-29T02:40:56;94941.00;;;-0.72;100.00
21011;BME280;10663;42.714;23.274;2023-01-29T02:42:34;94941.22;;;-0.74;100.00
21011;BME280;10663;42.714;23.274;2023-01-29T02:45:52;94958.03;;;-0.70;100.00
21011;BME280;10663;42.714;23.274;2023-01-29T02:47:46;94955.03;;;-0.73;100.00
21011;BME280;10663;42.714;23.274;2023-01-29T02:51:18;94957.84;;;-0.68;100.00
21011;BME280;10663;42.714;23.274;2023-01-29T02:54:44;94953.91;;;-0.64;100.00
21011;BME280;10663;42.714;23.274;2023-01-29T02:56:21;94953.09;;;-0.65;100.00
21011;BME280;10663;42.714;23.274;2023-01-29T02:58:01;94957.31;;;-0.64;100.00
21011;BME280;10663;42.714;23.274;2023-01-29T02:59:39;94950.66;;;-0.73;100.00
21011;BME280;10663;42.714;23.274;2023-01-29T03:01:28;94953.47;;;-0.68;100.00
21011;BME280;10663;42.714;23.274;2023-01-29T03:03:15;94947.47;;;-0.68;100.00
21011;BME280;10663;42.714;23.274;2023-01-29T03:04:51;94952.00;;;-0.77;100.00
21011;BME280;10663;42.714;23.274;2023-01-29T03:06:32;94956.44;;;-0.71;100.00
21011;BME280;10663;42.714;23.274;2023-01-29T03:08:07;94951.41;;;-0.72;100.00
21011;BME280;10663;42.714;23.274;2023-01-29T03:09:44;94951.84;;;-0.69;100.00
21011;BME280;10663;42.714;23.274;2023-01-29T03:11:19;94952.28;;;-0.65;100.00
21011;BME280;10663;42.714;23.274;2023-01-29T03:13:02;94954.13;;;-0.59;100.00
21011;BME280;10663;42.714;23.274;2023-01-29T03:14:38;94956.34;;;-0.56;100.00
21011;BME280;10663;42.714;23.274;2023-01-29T03:16:39;94966.94;;;-0.58;100.00
21011;BME280;10663;42.714;23.274;2023-01-29T03:18:17;94953.50;;;-0.61;100.00
21011;BME280;10663;42.714;23.274;2023-01-29T03:19:49;94957.31;;;-0.64;100.00
21011;BME280;10663;42.714;23.274;2023-01-29T03:21:32;94957.84;;;-0.68;100.00
21011;BME280;10663;42.714;23.274;2023-01-29T03:23:28;94954.44;;;-0.69;100.00
21011;BME280;10663;42.714;23.274;2023-01-29T03:25:20;94964.03;;;-0.69;100.00
21011;BME280;10663;42.714;23.274;2023-01-29T03:27:13;94963.88;;;-0.68;100.00
21011;BME280;10663;42.714;23.274;2023-01-29T03:29:04;94972.84;;;-0.70;100.00
21011;BME280;10663;42.714;23.274;2023-01-29T03:30:56;94968.03;;;-0.73;100.00
21011;BME280;10663;42.714;23.274;2023-01-29T03:33:04;94978.44;;;-0.73;100.00
21011;BME280;10663;42.714;23.274;2023-01-29T03:34:39;94965.44;;;-0.73;100.00
21011;BME280;10663;42.714;23.274;2023-01-29T03:36:19;94964.84;;;-0.69;100.00
21011;BME280;10663;42.714;23.274;2023-01-29T03:37:52;94960.69;;;-0.63;100.00
21011;BME280;10663;42.714;23.274;2023-01-29T03:39:26;94964.97;;;-0.56;100.00
21011;BME280;10663;42.714;23.274;2023-01-29T03:41:09;94956.34;;;-0.56;100.00
21011;BME280;10663;42.714;23.274;2023-01-29T03:49:59;94961.44;;;-0.69;100.00
21011;BME280;10663;42.714;23.274;2023-01-29T03:51:59;94950.72;;;-0.60;100.00
21011;BME280;10663;42.714;23.274;2023-01-29T03:53:42;94954.56;;;-0.56;100.00
21011;BME280;10663;42.714;23.274;2023-01-29T03:55:26;94971.09;;;-0.63;100.00
21011;BME280;10663;42.714;23.274;2023-01-29T03:57:14;94959.28;;;-0.66;100.00
21011;BME280;10663;42.714;23.274;2023-01-29T04:03:03;94960.28;;;-0.67;100.00
21011;BME280;10663;42.714;23.274;2023-01-29T04:04:40;94967.63;;;-0.70;100.00
21011;BME280;10663;42.714;23.274;2023-01-29T04:08:15;94965.28;;;-0.65;100.00
21011;BME280;10663;42.714;23.274;2023-01-29T04:09:50;94961.25;;;-0.68;100.00
21011;BME280;10663;42.714;23.274;2023-01-29T04:11:26;94969.63;;;-0.72;100.00
21011;BME280;10663;42.714;23.274;2023-01-29T04:13:01;94963.44;;;-0.71;100.00
21011;BME280;10663;42.714;23.274;2023-01-29T04:14:35;94968.44;;;-0.70;100.00
21011;BME280;10663;42.714;23.274;2023-01-29T04:16:12;94967.72;;;-0.64;100.00
21011;BME280;10663;42.714;23.274;2023-01-29T04:18:12;94970.31;;;-0.64;100.00
21011;BME280;10663;42.714;23.274;2023-01-29T04:20:09;94990.19;;;-0.78;100.00
21011;BME280;10663;42.714;23.274;2023-01-29T04:21:41;94968.94;;;-0.81;100.00
21011;BME280;10663;42.714;23.274;2023-01-29T04:23:23;94975.41;;;-0.77;100.00
21011;BME280;10663;42.714;23.274;2023-01-29T04:24:57;94974.94;;;-0.81;100.00
21011;BME280;10663;42.714;23.274;2023-01-29T04:28:18;94978.97;;;-0.78;100.00
21011;BME280;10663;42.714;23.274;2023-01-29T04:31:27;94977.63;;;-0.74;100.00
21011;BME280;10663;42.714;23.274;2023-01-29T04:35:05;94976.81;;;-0.74;100.00
21011;BME280;10663;42.714;23.274;2023-01-29T04:38:28;94980.38;;;-0.82;100.00
21011;BME280;10663;42.714;23.274;2023-01-29T04:40:19;94977.75;;;-0.82;100.00
21011;BME280;10663;42.714;23.274;2023-01-29T04:42:02;94972.75;;;-0.84;100.00
21011;BME280;10663;42.714;23.274;2023-01-29T04:43:57;94969.16;;;-0.83;100.00
21011;BME280;10663;42.714;23.274;2023-01-29T04:49:34;94990.13;;;-0.84;100.00
21011;BME280;10663;42.714;23.274;2023-01-29T04:53:22;94979.31;;;-0.88;100.00
21011;BME280;10663;42.714;23.274;2023-01-29T04:55:09;94981.91;;;-0.88;100.00
21011;BME280;10663;42.714;23.274;2023-01-29T05:00:16;94982.25;;;-0.91;100.00
21011;BME280;10663;42.714;23.274;2023-01-29T05:01:48;94985.13;;;-0.86;100.00
21011;BME280;10663;42.714;23.274;2023-01-29T05:03:22;94985.13;;;-0.86;100.00
21011;BME280;10663;42.714;23.274;2023-01-29T05:04:55;94987.47;;;-0.91;100.00
21011;BME280;10663;42.714;23.274;2023-01-29T05:06:29;94979.31;;;-0.88;100.00
21011;BME280;10663;42.714;23.274;2023-01-29T05:08:02;94983.88;;;-0.90;100.00
21011;BME280;10663;42.714;23.274;2023-01-29T05:09:35;94985.31;;;-0.87;100.00
21011;BME280;10663;42.714;23.274;2023-01-29T05:11:08;94989.16;;;-0.83;100.00
21011;BME280;10663;42.714;23.274;2023-01-29T05:12:42;94995.53;;;-0.86;100.00
21011;BME280;10663;42.714;23.274;2023-01-29T05:14:17;94996.56;;;-0.80;100.00
21011;BME280;10663;42.714;23.274;2023-01-29T05:15:54;94996.50;;;-0.87;100.00
21011;BME280;10663;42.714;23.274;2023-01-29T05:17:26;94992.75;;;-0.84;100.00
21011;BME280;10663;42.714;23.274;2023-01-29T05:18:57;94992.75;;;-0.84;100.00
21011;BME280;10663;42.714;23.274;2023-01-29T05:20:32;94988.94;;;-0.82;100.00
21011;BME280;10663;42.714;23.274;2023-01-29T05:22:05;94997.34;;;-0.80;100.00
21011;BME280;10663;42.714;23.274;2023-01-29T05:23:39;94996.13;;;-0.84;100.00
21011;BME280;10663;42.714;23.274;2023-01-29T05:25:31;94991.63;;;-0.75;100.00
21011;BME280;10663;42.714;23.274;2023-01-29T05:27:03;95001.44;;;-0.70;100.00
21011;BME280;10663;42.714;23.274;2023-01-29T05:28:52;94991.47;;;-0.67;100.00
21011;BME280;10663;42.714;23.274;2023-01-29T05:30:23;94997.63;;;-0.74;100.00
21011;BME280;10663;42.714;23.274;2023-01-29T05:31:54;95008.06;;;-0.68;100.00
21011;BME280;10663;42.714;23.274;2023-01-29T05:33:35;95008.09;;;-0.61;100.00
21011;BME280;10663;42.714;23.274;2023-01-29T05:35:06;95011.47;;;-0.67;100.00
21011;BME280;10663;42.714;23.274;2023-01-29T05:36:37;94998.69;;;-0.62;100.00
21011;BME280;10663;42.714;23.274;2023-01-29T05:38:09;95007.13;;;-0.60;100.00
21011;BME280;10663;42.714;23.274;2023-01-29T05:39:39;95001.13;;;-0.61;100.00
21011;BME280;10663;42.714;23.274;2023-01-29T05:41:10;95009.34;;;-0.57;100.00
21011;BME280;10663;42.714;23.274;2023-01-29T05:42:41;95011.16;;;-0.58;100.00
21011;BME280;10663;42.714;23.274;2023-01-29T05:44:12;95004.38;;;-0.52;100.00
21011;BME280;10663;42.714;23.274;2023-01-29T05:45:54;95011.97;;;-0.57;100.00
21011;BME280;10663;42.714;23.274;2023-01-29T05:47:25;95009.53;;;-0.59;100.00
21011;BME280;10663;42.714;23.274;2023-01-29T05:48:56;95014.28;;;-0.62;100.00
21011;BME280;10663;42.714;23.274;2023-01-29T05:50:26;95013.72;;;-0.64;100.00
21011;BME280;10663;42.714;23.274;2023-01-29T05:51:57;95014.88;;;-0.67;100.00
21011;BME280;10663;42.714;23.274;2023-01-29T05:53:29;95015.69;;;-0.66;100.00
21011;BME280;10663;42.714;23.274;2023-01-29T05:55:00;95011.84;;;-0.70;100.00
21011;BME280;10663;42.714;23.274;2023-01-29T05:56:31;95014.06;;;-0.67;100.00
21011;BME280;10663;42.714;23.274;2023-01-29T05:58:02;95020.31;;;-0.62;100.00
21011;BME280;10663;42.714;23.274;2023-01-29T05:59:33;95015.09;;;-0.62;100.00
21011;BME280;10663;42.714;23.274;2023-01-29T06:01:15;95025.50;;;-0.62;100.00
21011;BME280;10663;42.714;23.274;2023-01-29T06:02:46;95019.94;;;-0.59;100.00
21011;BME280;10663;42.714;23.274;2023-01-29T06:04:17;95026.31;;;-0.61;100.00
21011;BME280;10663;42.714;23.274;2023-01-29T06:05:48;95030.34;;;-0.59;100.00
21011;BME280;10663;42.714;23.274;2023-01-29T06:07:19;95030.97;;;-0.57;100.00
21011;BME280;10663;42.714;23.274;2023-01-29T06:08:50;95032.31;;;-0.61;100.00
21011;BME280;10663;42.714;23.274;2023-01-29T06:10:21;95032.56;;;-0.56;100.00
21011;BME280;10663;42.714;23.274;2023-01-29T06:11:52;95034.69;;;-0.66;100.00
21011;BME280;10663;42.714;23.274;2023-01-29T06:13:23;95026.88;;;-0.66;100.00
21011;BME280;10663;42.714;23.274;2023-01-29T06:14:54;95038.50;;;-0.62;100.00
21011;BME280;10663;42.714;23.274;2023-01-29T06:16:25;95033.31;;;-0.62;100.00
21011;BME280;10663;42.714;23.274;2023-01-29T06:17:56;95044.50;;;-0.61;100.00
21011;BME280;10663;42.714;23.274;2023-01-29T06:19:27;95042.00;;;-0.55;100.00
21011;BME280;10663;42.714;23.274;2023-01-29T06:21:02;95037.78;;;-0.56;100.00
21011;BME280;10663;42.714;23.274;2023-01-29T06:22:33;95049.22;;;-0.50;100.00
21011;BME280;10663;42.714;23.274;2023-01-29T06:24:04;95050.38;;;-0.53;100.00
21011;BME280;10663;42.714;23.274;2023-01-29T06:25:34;95046.16;;;-0.54;100.00
21011;BME280;10663;42.714;23.274;2023-01-29T06:27:05;95048.19;;;-0.56;100.00
21011;BME280;10663;42.714;23.274;2023-01-29T06:28:36;95054.41;;;-0.50;100.00
21011;BME280;10663;42.714;23.274;2023-01-29T06:30:08;95054.22;;;-0.49;100.00
21011;BME280;10663;42.714;23.274;2023-01-29T06:31:39;95056.97;;;-0.57;100.00
21011;BME280;10663;42.714;23.274;2023-01-29T06:33:10;95059.38;;;-0.55;100.00
21011;BME280;10663;42.714;23.274;2023-01-29T06:34:40;95060.25;;;-0.48;100.00
21011;BME280;10663;42.714;23.274;2023-01-29T06:36:11;95063.94;;;-0.36;100.00
21011;BME280;10663;42.714;23.274;2023-01-29T06:37:42;95058.69;;;-0.43;100.00
21011;BME280;10663;42.714;23.274;2023-01-29T06:39:14;95069.25;;;-0.44;100.00
21011;BME280;10663;42.714;23.274;2023-01-29T06:40:45;95067.66;;;-0.45;100.00
21011;BME280;10663;42.714;23.274;2023-01-29T06:42:16;95069.47;;;-0.46;100.00
21011;BME280;10663;42.714;23.274;2023-01-29T06:43:47;95064.06;;;-0.44;100.00
21011;BME280;10663;42.714;23.274;2023-01-29T06:45:18;95064.31;;;-0.39;100.00
21011;BME280;10663;42.714;23.274;2023-01-29T06:46:49;95067.16;;;-0.34;100.00
21011;BME280;10663;42.714;23.274;2023-01-29T06:48:21;95075.56;;;-0.32;100.00
21011;BME280;10663;42.714;23.274;2023-01-29T06:49:52;95069.94;;;-0.35;100.00
21011;BME280;10663;42.714;23.274;2023-01-29T06:51:23;95062.25;;;-0.22;100.00
21011;BME280;10663;42.714;23.274;2023-01-29T06:52:54;95063.69;;;-0.20;100.00
21011;BME280;10663;42.714;23.274;2023-01-29T06:54:24;95074.31;;;-0.15;100.00
21011;BME280;10663;42.714;23.274;2023-01-29T06:55:56;95073.22;;;0.01;100.00
21011;BME280;10663;42.714;23.274;2023-01-29T06:57:29;95078.00;;;-0.03;100.00
21011;BME280;10663;42.714;23.274;2023-01-29T06:59:00;95075.22;;;-0.01;100.00
21011;BME280;10663;42.714;23.274;2023-01-29T07:00:32;95079.81;;;-0.03;100.00
21011;BME280;10663;42.714;23.274;2023-01-29T07:02:03;95080.66;;;0.04;100.00
21011;BME280;10663;42.714;23.274;2023-01-29T07:03:34;95077.09;;;0.12;100.00
21011;BME280;10663;42.714;23.274;2023-01-29T07:05:05;95078.47;;;0.08;100.00
21011;BME280;10663;42.714;23.274;2023-01-29T07:06:36;95088.63;;;0.03;100.00
21011;BME280;10663;42.714;23.274;2023-01-29T07:08:07;95086.63;;;-0.02;100.00
21011;BME280;10663;42.714;23.274;2023-01-29T07:09:41;95087.19;;;-0.07;100.00
21011;BME280;10663;42.714;23.274;2023-01-29T07:11:12;95089.16;;;-0.09;100.00
21011;BME280;10663;42.714;23.274;2023-01-29T07:12:43;95091.50;;;-0.20;100.00
21011;BME280;10663;42.714;23.274;2023-01-29T07:14:13;95088.63;;;-0.25;100.00
21011;BME280;10663;42.714;23.274;2023-01-29T07:15:45;95097.53;;;-0.13;100.00
21011;BME280;10663;42.714;23.274;2023-01-29T07:17:15;95093.84;;;0.03;100.00
21011;BME280;10663;42.714;23.274;2023-01-29T07:18:46;95093.44;;;-0.01;100.00
21011;BME280;10663;42.714;23.274;2023-01-29T07:20:18;95094.84;;;0.02;100.00
21011;BME280;10663;42.714;23.274;2023-01-29T07:21:48;95096.03;;;-0.01;100.00
21011;BME280;10663;42.714;23.274;2023-01-29T07:23:19;95103.88;;;0.06;100.00
21011;BME280;10663;42.714;23.274;2023-01-29T07:24:51;95100.28;;;0.07;100.00
21011;BME280;10663;42.714;23.274;2023-01-29T07:26:21;95097.50;;;0.08;100.00
21011;BME280;10663;42.714;23.274;2023-01-29T07:27:52;95110.09;;;0.05;100.00
21011;BME280;10663;42.714;23.274;2023-01-29T07:29:23;95111.00;;;-0.10;100.00
21011;BME280;10663;42.714;23.274;2023-01-29T07:30:58;95104.72;;;-0.15;100.00
21011;BME280;10663;42.714;23.274;2023-01-29T07:32:29;95105.53;;;-0.15;100.00
21011;BME280;10663;42.714;23.274;2023-01-29T07:34:00;95106.16;;;-0.13;100.00
21011;BME280;10663;42.714;23.274;2023-01-29T07:35:34;95114.63;;;-0.04;100.00
21011;BME280;10663;42.714;23.274;2023-01-29T07:37:06;95124.59;;;-0.08;100.00
21011;BME280;10663;42.714;23.274;2023-01-29T07:38:37;95106.59;;;-0.09;100.00
21011;BME280;10663;42.714;23.274;2023-01-29T07:40:08;95108.72;;;-0.19;100.00
21011;BME280;10663;42.714;23.274;2023-01-29T07:41:40;95108.50;;;-0.18;100.00
21011;BME280;10663;42.714;23.274;2023-01-29T07:43:19;95105.03;;;-0.04;100.00
21011;BME280;10663;42.714;23.274;2023-01-29T07:44:50;95109.25;;;-0.03;100.00
21011;BME280;10663;42.714;23.274;2023-01-29T07:46:21;95109.06;;;-0.01;100.00
21011;BME280;10663;42.714;23.274;2023-01-29T07:47:52;95107.47;;;0.05;100.00
21011;BME280;10663;42.714;23.274;2023-01-29T07:49:24;95110.19;;;0.18;100.00
21011;BME280;10663;42.714;23.274;2023-01-29T07:50:55;95109.13;;;0.12;100.00
21011;BME280;10663;42.714;23.274;2023-01-29T07:52:28;95112.97;;;0.16;100.00
21011;BME280;10663;42.714;23.274;2023-01-29T07:54:00;95116.91;;;0.06;100.00
21011;BME280;10663;42.714;23.274;2023-01-29T07:55:31;95113.53;;;0.12;100.00
21011;BME280;10663;42.714;23.274;2023-01-29T07:57:02;95115.78;;;0.15;100.00
21011;BME280;10663;42.714;23.274;2023-01-29T07:58:33;95111.38;;;0.15;100.00
21011;BME280;10663;42.714;23.274;2023-01-29T08:00:05;95125.19;;;0.16;100.00
21011;BME280;10663;42.714;23.274;2023-01-29T08:01:42;95120.16;;;0.14;99.66
21011;BME280;10663;42.714;23.274;2023-01-29T08:03:16;95114.72;;;0.09;99.21
21011;BME280;10663;42.714;23.274;2023-01-29T08:04:49;95129.78;;;0.14;99.74
21011;BME280;10663;42.714;23.274;2023-01-29T08:06:19;95126.03;;;0.23;100.00
21011;BME280;10663;42.714;23.274;2023-01-29T08:07:53;95123.81;;;0.20;100.00
21011;BME280;10663;42.714;23.274;2023-01-29T08:09:24;95135.22;;;0.19;100.00
21011;BME280;10663;42.714;23.274;2023-01-29T08:10:55;95132.75;;;0.11;98.90
21011;BME280;10663;42.714;23.274;2023-01-29T08:12:25;95124.19;;;0.17;99.13
21011;BME280;10663;42.714;23.274;2023-01-29T08:13:56;95125.19;;;0.16;99.14
21011;BME280;10663;42.714;23.274;2023-01-29T08:15:27;95125.22;;;0.22;98.21
21011;BME280;10663;42.714;23.274;2023-01-29T08:16:58;95128.69;;;0.29;99.44
21011;BME280;10663;42.714;23.274;2023-01-29T08:18:29;95124.56;;;0.14;98.54
21011;BME280;10663;42.714;23.274;2023-01-29T08:20:04;95126.50;;;0.05;97.63
21011;BME280;10663;42.714;23.274;2023-01-29T08:21:35;95121.59;;;0.17;97.85
21011;BME280;10663;42.714;23.274;2023-01-29T08:23:11;95124.84;;;0.25;98.86
21011;BME280;10663;42.714;23.274;2023-01-29T08:24:42;95128.94;;;0.34;98.80
21011;BME280;10663;42.714;23.274;2023-01-29T08:26:13;95130.09;;;0.32;97.64
21011;BME280;10663;42.714;23.274;2023-01-29T08:27:44;95132.38;;;0.42;97.94
21011;BME280;10663;42.714;23.274;2023-01-29T08:29:15;95130.28;;;0.30;98.59
21011;BME280;10663;42.714;23.274;2023-01-29T08:30:46;95143.13;;;0.32;98.41
21011;BME280;10663;42.714;23.274;2023-01-29T08:32:16;95134.97;;;0.14;97.01
21011;BME280;10663;42.714;23.274;2023-01-29T08:33:48;95148.28;;;0.25;97.34
21011;BME280;10663;42.714;23.274;2023-01-29T08:35:19;95141.19;;;0.13;97.15
21011;BME280;10663;42.714;23.274;2023-01-29T08:36:50;95145.53;;;0.33;97.84
21011;BME280;10663;42.714;23.274;2023-01-29T08:38:20;95138.91;;;0.31;98.76
21011;BME280;10663;42.714;23.274;2023-01-29T08:39:51;95144.59;;;0.13;96.76
21011;BME280;10663;42.714;23.274;2023-01-29T08:41:22;95155.66;;;0.22;97.04
21011;BME280;10663;42.714;23.274;2023-01-29T08:43:06;95158.09;;;0.23;97.57
21011;BME280;10663;42.714;23.274;2023-01-29T08:44:37;95154.69;;;0.23;97.48
21011;BME280;10663;42.714;23.274;2023-01-29T08:46:08;95149.47;;;0.23;97.17
21011;BME280;10663;42.714;23.274;2023-01-29T08:47:44;95154.06;;;0.21;97.08
21011;BME280;10663;42.714;23.274;2023-01-29T08:49:15;95162.13;;;0.26;98.14
21011;BME280;10663;42.714;23.274;2023-01-29T08:50:46;95166.66;;;0.17;98.12
21011;BME280;10663;42.714;23.274;2023-01-29T08:52:17;95159.09;;;0.22;98.66
21011;BME280;10663;42.714;23.274;2023-01-29T08:53:48;95166.75;;;0.30;98.14
21011;BME280;10663;42.714;23.274;2023-01-29T08:55:18;95158.84;;;0.17;98.79